createdAt,value
2023-04-22T00:00:54.969Z,15.48
2023-04-22T00:03:23.028Z,15.43
2023-04-22T00:05:51.191Z,15.45
2023-04-22T00:08:18.651Z,15.36
2023-04-22T00:10:46.237Z,15.22
2023-04-22T00:13:13.461Z,15.23
2023-04-22T00:15:41.291Z,15.29
2023-04-22T00:18:13.865Z,15.37
2023-04-22T00:20:43.845Z,15.15
2023-04-22T00:23:11.792Z,15.02
2023-04-22T00:25:39.785Z,14.98
2023-04-22T00:28:07.334Z,14.87
2023-04-22T00:30:35.206Z,14.84
2023-04-22T00:33:02.579Z,14.82
2023-04-22T00:35:30.874Z,14.74
2023-04-22T00:37:58.618Z,14.75
2023-04-22T00:40:26.064Z,14.76
2023-04-22T00:42:53.978Z,14.85
2023-04-22T00:45:21.819Z,14.85
2023-04-22T00:47:49.527Z,14.87
2023-04-22T00:50:17.418Z,14.82
2023-04-22T00:52:45.012Z,14.92
2023-04-22T00:55:12.613Z,14.83
2023-04-22T00:57:40.914Z,14.81
2023-04-22T01:00:10.218Z,14.75
2023-04-22T01:02:38.783Z,14.62
2023-04-22T01:05:09.495Z,14.49
2023-04-22T01:07:36.984Z,14.49
2023-04-22T01:10:04.626Z,14.63
2023-04-22T01:12:32.331Z,14.63
2023-04-22T01:15:04.313Z,14.70
2023-04-22T01:17:33.908Z,14.70
2023-04-22T01:20:04.093Z,14.61
2023-04-22T01:22:37.390Z,14.81
2023-04-22T01:25:05.320Z,14.77
2023-04-22T01:27:32.597Z,14.60
2023-04-22T01:30:00.296Z,14.54
2023-04-22T01:32:30.695Z,14.60
2023-04-22T01:34:59.240Z,14.69
2023-04-22T01:37:26.997Z,14.79
2023-04-22T01:39:54.765Z,14.76
2023-04-22T01:42:22.321Z,14.64
2023-04-22T01:44:50.195Z,14.55
2023-04-22T01:47:18.148Z,14.48
2023-04-22T01:49:45.985Z,14.51
2023-04-22T01:52:14.033Z,14.50
2023-04-22T01:54:42.067Z,14.52
2023-04-22T01:57:14.076Z,14.57
2023-04-22T01:59:42.216Z,14.64
2023-04-22T02:02:09.973Z,14.66
2023-04-22T02:04:37.400Z,14.63
2023-04-22T02:07:05.230Z,14.48
2023-04-22T02:09:34.473Z,14.55
2023-04-22T02:12:02.476Z,14.41
2023-04-22T02:14:30.199Z,14.34
2023-04-22T02:17:03.488Z,14.36
2023-04-22T02:19:31.273Z,14.31
2023-04-22T02:21:59.107Z,14.43
2023-04-22T02:24:26.905Z,14.51
2023-04-22T02:26:54.145Z,14.39
2023-04-22T02:29:22.319Z,14.30
2023-04-22T02:31:50.544Z,14.27
2023-04-22T02:34:18.495Z,14.25
2023-04-22T02:36:46.165Z,14.13
2023-04-22T02:39:13.468Z,14.16
2023-04-22T02:41:41.877Z,14.23
2023-04-22T02:44:09.463Z,14.36
2023-04-22T02:46:37.447Z,14.47
2023-04-22T02:49:05.429Z,14.52
2023-04-22T02:51:33.336Z,14.35
2023-04-22T02:54:01.147Z,14.40
2023-04-22T02:56:28.875Z,14.22
2023-04-22T02:58:56.313Z,14.23
2023-04-22T03:01:23.999Z,14.28
2023-04-22T03:03:52.646Z,14.30
2023-04-22T03:06:23.239Z,14.35
2023-04-22T03:08:50.961Z,14.36
2023-04-22T03:11:18.607Z,14.28
2023-04-22T03:13:46.290Z,14.23
2023-04-22T03:16:14.019Z,14.20
2023-04-22T03:18:42.266Z,14.24
2023-04-22T03:21:11.017Z,14.30
2023-04-22T03:23:41.087Z,14.45
2023-04-22T03:26:08.790Z,14.47
2023-04-22T03:28:36.257Z,14.25
2023-04-22T03:31:03.621Z,14.09
2023-04-22T03:33:31.351Z,14.16
2023-04-22T03:36:08.094Z,14.19
2023-04-22T03:38:36.118Z,14.15
2023-04-22T03:41:03.930Z,14.18
2023-04-22T03:43:39.868Z,14.28
2023-04-22T03:46:09.806Z,14.23
2023-04-22T03:48:42.111Z,14.29
2023-04-22T03:51:14.971Z,14.06
2023-04-22T03:53:42.607Z,13.88
2023-04-22T03:56:13.315Z,13.87
2023-04-22T03:58:45.102Z,13.90
2023-04-22T04:01:12.543Z,14.02
2023-04-22T04:03:43.063Z,14.02
2023-04-22T04:06:12.059Z,14.06
2023-04-22T04:08:39.384Z,14.10
2023-04-22T04:11:08.529Z,13.99
2023-04-22T04:13:35.830Z,13.97
2023-04-22T04:16:26.195Z,13.89
2023-04-22T04:19:01.016Z,13.90
2023-04-22T04:21:29.426Z,13.94
2023-04-22T04:23:57.201Z,13.90
2023-04-22T04:26:27.882Z,13.85
2023-04-22T04:29:02.215Z,13.80
2023-04-22T04:31:29.628Z,13.74
2023-04-22T04:33:59.171Z,13.75
2023-04-22T04:36:29.116Z,13.83
2023-04-22T04:39:02.279Z,13.88
2023-04-22T04:41:31.847Z,13.92
2023-04-22T04:44:00.835Z,14.10
2023-04-22T04:46:34.877Z,13.95
2023-04-22T04:49:02.907Z,13.94
2023-04-22T04:51:33.964Z,14.10
2023-04-22T04:54:02.133Z,14.22
2023-04-22T04:56:35.868Z,14.32
2023-04-22T04:59:03.453Z,14.41
2023-04-22T05:01:32.210Z,14.40
2023-04-22T05:04:05.085Z,14.51
2023-04-22T05:06:32.900Z,14.51
2023-04-22T05:09:05.391Z,14.34
2023-04-22T05:11:32.815Z,14.36
2023-04-22T05:14:02.719Z,14.50
2023-04-22T05:16:34.977Z,14.69
2023-04-22T05:19:03.714Z,14.70
2023-04-22T05:21:31.559Z,14.54
2023-04-22T05:23:59.387Z,14.52
2023-04-22T05:26:26.936Z,14.73
2023-04-22T05:28:54.371Z,14.88
2023-04-22T05:31:22.637Z,15.08
2023-04-22T05:33:50.051Z,15.26
2023-04-22T05:36:17.856Z,15.30
2023-04-22T05:38:47.447Z,15.51
2023-04-22T05:41:15.806Z,15.32
2023-04-22T05:43:43.723Z,15.32
2023-04-22T05:46:16.022Z,15.50
2023-04-22T05:48:45.008Z,15.24
2023-04-22T05:51:32.952Z,15.41
2023-04-22T05:54:00.882Z,15.56
2023-04-22T05:56:28.316Z,15.50
2023-04-22T05:58:56.097Z,15.38
2023-04-22T06:01:25.303Z,14.99
2023-04-22T06:04:00.209Z,14.91
2023-04-22T06:06:28.314Z,15.00
2023-04-22T06:08:56.007Z,14.94
2023-04-22T06:11:23.330Z,15.15
2023-04-22T06:13:50.786Z,15.21
2023-04-22T06:16:18.873Z,15.43
2023-04-22T06:18:46.295Z,15.52
2023-04-22T06:21:15.003Z,15.67
2023-04-22T06:23:42.708Z,15.92
2023-04-22T06:26:10.620Z,16.22
2023-04-22T06:28:38.352Z,16.28
2023-04-22T06:31:11.100Z,16.79
2023-04-22T06:33:39.254Z,16.86
2023-04-22T06:36:07.306Z,16.69
2023-04-22T06:38:36.242Z,17.11
2023-04-22T06:41:21.673Z,16.97
2023-04-22T06:43:50.600Z,17.04
2023-04-22T06:46:36.499Z,17.27
2023-04-22T06:49:23.495Z,17.53
2023-04-22T06:52:09.611Z,17.63
2023-04-22T06:54:38.414Z,17.34
2023-04-22T06:57:06.002Z,17.56
2023-04-22T06:59:33.917Z,17.58
2023-04-22T07:02:01.380Z,17.43
2023-04-22T07:04:32.032Z,17.76
2023-04-22T07:07:00.561Z,17.35
2023-04-22T07:09:29.132Z,17.24
2023-04-22T07:11:59.068Z,17.27
2023-04-22T07:14:30.373Z,17.60
2023-04-22T07:16:58.816Z,17.91
2023-04-22T07:19:26.688Z,18.03
2023-04-22T07:21:54.248Z,18.11
2023-04-22T07:24:22.079Z,18.32
2023-04-22T07:26:49.801Z,17.99
2023-04-22T07:29:17.190Z,18.40
2023-04-22T07:31:45.159Z,18.33
2023-04-22T07:34:12.643Z,18.57
2023-04-22T07:36:40.332Z,18.42
2023-04-22T07:39:09.734Z,18.82
2023-04-22T07:41:37.110Z,18.39
2023-04-22T07:44:04.402Z,18.60
2023-04-22T07:46:31.830Z,18.61
2023-04-22T07:48:59.349Z,17.94
2023-04-22T07:51:27.018Z,18.37
2023-04-22T07:53:54.348Z,18.66
2023-04-22T07:56:22.853Z,18.71
2023-04-22T07:58:50.118Z,18.82
2023-04-22T08:01:19.995Z,19.17
2023-04-22T08:03:48.239Z,19.50
2023-04-22T08:06:16.007Z,18.91
2023-04-22T08:08:43.763Z,18.38
2023-04-22T08:11:11.492Z,19.09
2023-04-22T08:13:39.215Z,19.41
2023-04-22T08:16:07.575Z,19.70
2023-04-22T08:18:35.465Z,20.02
2023-04-22T08:21:02.840Z,19.54
2023-04-22T08:23:30.104Z,19.89
2023-04-22T08:25:58.430Z,19.62
2023-04-22T08:28:25.894Z,20.32
2023-04-22T08:30:53.643Z,19.41
2023-04-22T08:33:21.002Z,20.07
2023-04-22T08:35:48.408Z,20.61
2023-04-22T08:38:15.924Z,20.44
2023-04-22T08:40:43.499Z,20.08
2023-04-22T08:43:12.041Z,20.27
2023-04-22T08:45:39.936Z,20.44
2023-04-22T08:48:09.054Z,20.67
2023-04-22T08:50:37.910Z,20.86
2023-04-22T08:53:06.177Z,21.54
2023-04-22T08:55:35.685Z,21.35
2023-04-22T08:58:04.440Z,20.38
2023-04-22T09:00:34.377Z,21.23
2023-04-22T09:03:03.186Z,21.19
2023-04-22T09:05:32.860Z,22.21
2023-04-22T09:08:00.181Z,21.33
2023-04-22T09:10:28.459Z,21.74
2023-04-22T09:12:57.076Z,22.36
2023-04-22T09:15:25.456Z,21.96
2023-04-22T09:17:53.005Z,22.20
2023-04-22T09:20:25.768Z,22.50
2023-04-22T09:22:53.351Z,22.16
2023-04-22T09:25:22.330Z,22.82
2023-04-22T09:27:51.707Z,23.26
2023-04-22T09:30:23.242Z,23.43
2023-04-22T09:32:56.688Z,23.33
2023-04-22T09:35:28.986Z,22.89
2023-04-22T09:37:58.102Z,23.13
2023-04-22T09:40:25.695Z,23.28
2023-04-22T09:42:54.503Z,23.44
2023-04-22T09:45:29.292Z,24.62
2023-04-22T09:47:58.056Z,25.67
2023-04-22T09:50:27.042Z,24.70
2023-04-22T09:52:55.616Z,24.67
2023-04-22T09:55:26.427Z,24.82
2023-04-22T09:57:55.459Z,24.41
2023-04-22T10:00:29.936Z,25.32
2023-04-22T10:02:57.841Z,25.74
2023-04-22T10:05:25.504Z,26.07
2023-04-22T10:07:53.081Z,23.32
2023-04-22T10:10:20.895Z,24.65
2023-04-22T10:12:49.173Z,24.42
2023-04-22T10:15:16.560Z,24.98
2023-04-22T10:17:45.370Z,24.68
2023-04-22T10:20:16.605Z,24.69
2023-04-22T10:22:44.096Z,25.23
2023-04-22T10:25:29.341Z,25.22
2023-04-22T10:28:03.404Z,25.74
2023-04-22T10:30:32.443Z,25.42
2023-04-22T10:33:18.744Z,25.58
2023-04-22T10:36:04.571Z,25.91
2023-04-22T10:38:36.756Z,24.80
2023-04-22T10:41:04.484Z,24.48
2023-04-22T10:43:41.831Z,25.26
2023-04-22T10:46:29.098Z,25.86
2023-04-22T10:49:00.516Z,25.67
2023-04-22T10:51:40.800Z,26.33
2023-04-22T10:54:31.365Z,25.74
2023-04-22T10:57:11.544Z,25.79
2023-04-22T10:59:51.813Z,26.61
2023-04-22T11:02:20.893Z,27.21
2023-04-22T11:04:48.944Z,28.16
2023-04-22T11:07:30.002Z,27.54
2023-04-22T11:10:03.097Z,28.58
2023-04-22T11:12:33.966Z,27.66
2023-04-22T11:15:02.123Z,27.80
2023-04-22T11:17:32.251Z,28.67
2023-04-22T11:20:00.166Z,29.40
2023-04-22T11:22:28.558Z,29.87
2023-04-22T11:24:56.872Z,29.21
2023-04-22T11:27:27.743Z,29.11
2023-04-22T11:30:05.073Z,28.27
2023-04-22T11:32:33.050Z,28.37
2023-04-22T11:35:04.006Z,29.26
2023-04-22T11:37:31.727Z,27.34
2023-04-22T11:40:17.435Z,28.93
2023-04-22T11:42:48.691Z,29.67
2023-04-22T11:45:17.306Z,29.58
2023-04-22T11:47:46.465Z,29.37
2023-04-22T11:50:14.486Z,29.63
2023-04-22T11:52:45.297Z,29.85
2023-04-22T11:55:13.961Z,31.53
2023-04-22T11:57:42.109Z,31.07
2023-04-22T12:00:14.040Z,30.92
2023-04-22T12:02:42.284Z,30.56
2023-04-22T12:05:12.490Z,31.14
2023-04-22T12:07:40.040Z,30.59
2023-04-22T12:10:07.935Z,30.41
2023-04-22T12:12:37.210Z,29.35
2023-04-22T12:15:13.618Z,30.17
2023-04-22T12:17:44.583Z,29.07
2023-04-22T12:20:13.339Z,28.17
2023-04-22T12:22:41.238Z,27.61
2023-04-22T12:25:09.439Z,28.40
2023-04-22T12:27:36.955Z,29.23
2023-04-22T12:30:04.590Z,30.21
2023-04-22T12:32:32.861Z,30.97
2023-04-22T12:35:00.641Z,29.16
2023-04-22T12:37:28.147Z,29.11
2023-04-22T12:39:55.561Z,30.66
2023-04-22T12:42:22.874Z,30.98
2023-04-22T12:44:50.178Z,29.84
2023-04-22T12:47:18.275Z,29.02
2023-04-22T12:49:47.442Z,29.81
2023-04-22T12:52:15.139Z,28.61
2023-04-22T12:54:42.458Z,28.02
2023-04-22T12:57:10.387Z,27.67
2023-04-22T12:59:38.234Z,28.69
2023-04-22T13:02:06.344Z,28.23
2023-04-22T13:04:34.144Z,29.67
2023-04-22T13:07:01.456Z,29.30
2023-04-22T13:09:29.393Z,29.14
2023-04-22T13:11:57.603Z,30.26
2023-04-22T13:14:26.120Z,31.08
2023-04-22T13:16:53.784Z,29.63
2023-04-22T13:19:21.163Z,28.89
2023-04-22T13:21:48.381Z,31.46
2023-04-22T13:24:15.752Z,30.00
2023-04-22T13:26:43.449Z,29.97
2023-04-22T13:29:14.179Z,31.35
2023-04-22T13:31:44.865Z,31.68
2023-04-22T13:34:12.322Z,30.04
2023-04-22T13:36:39.634Z,28.58
2023-04-22T13:39:08.553Z,28.43
2023-04-22T13:41:36.148Z,28.05
2023-04-22T13:44:04.516Z,30.83
2023-04-22T13:46:31.901Z,32.08
2023-04-22T13:48:59.422Z,32.79
2023-04-22T13:51:27.003Z,32.10
2023-04-22T13:53:54.714Z,34.55
2023-04-22T13:56:23.128Z,33.52
2023-04-22T13:58:50.967Z,34.65
2023-04-22T14:01:18.780Z,35.26
2023-04-22T14:03:47.228Z,36.13
2023-04-22T14:06:15.634Z,37.30
2023-04-22T14:08:43.581Z,36.44
2023-04-22T14:11:11.562Z,34.10
2023-04-22T14:13:39.412Z,34.41
2023-04-22T14:16:11.996Z,34.67
2023-04-22T14:18:40.492Z,35.25
2023-04-22T14:21:09.587Z,35.34
2023-04-22T14:23:37.544Z,35.50
2023-04-22T14:26:05.717Z,35.31
2023-04-22T14:28:33.426Z,33.84
2023-04-22T14:31:00.889Z,33.89
2023-04-22T14:33:28.408Z,33.37
2023-04-22T14:35:56.602Z,33.05
2023-04-22T14:38:24.745Z,32.87
2023-04-22T14:40:52.363Z,34.76
2023-04-22T14:43:20.302Z,32.91
2023-04-22T14:45:47.916Z,33.76
2023-04-22T14:48:15.699Z,32.18
2023-04-22T14:50:43.824Z,32.25
2023-04-22T14:53:11.135Z,33.91
2023-04-22T14:55:38.910Z,33.37
2023-04-22T14:58:06.350Z,31.74
2023-04-22T15:00:33.642Z,31.14
2023-04-22T15:03:01.157Z,30.49
2023-04-22T15:05:29.095Z,30.11
2023-04-22T15:07:57.813Z,29.14
2023-04-22T15:10:26.582Z,29.42
2023-04-22T15:12:54.370Z,29.67
2023-04-22T15:15:21.824Z,30.09
2023-04-22T15:17:49.204Z,31.59
2023-04-22T15:20:17.028Z,30.74
2023-04-22T15:22:44.648Z,29.94
2023-04-22T15:25:12.001Z,30.91
2023-04-22T15:27:39.394Z,29.81
2023-04-22T15:30:07.566Z,31.10
2023-04-22T15:32:35.771Z,32.99
2023-04-22T15:35:03.346Z,30.92
2023-04-22T15:37:31.396Z,31.27
2023-04-22T15:39:59.392Z,33.42
2023-04-22T15:42:27.219Z,32.39
2023-04-22T15:44:54.549Z,29.79
2023-04-22T15:47:22.407Z,31.54
2023-04-22T15:49:50.085Z,32.90
2023-04-22T15:52:19.489Z,32.79
2023-04-22T15:54:47.321Z,29.11
2023-04-22T15:57:15.142Z,28.65
2023-04-22T15:59:42.657Z,29.89
2023-04-22T16:02:10.486Z,28.78
2023-04-22T16:04:38.446Z,30.78
2023-04-22T16:07:06.067Z,31.27
2023-04-22T16:09:34.164Z,28.27
2023-04-22T16:12:01.615Z,29.02
2023-04-22T16:14:28.947Z,31.17
2023-04-22T16:16:56.626Z,30.88
2023-04-22T16:19:24.565Z,32.00
2023-04-22T16:21:51.924Z,28.85
2023-04-22T16:24:19.470Z,28.47
2023-04-22T16:26:46.752Z,27.90
2023-04-22T16:29:14.554Z,29.45
2023-04-22T16:31:41.846Z,30.88
2023-04-22T16:34:09.395Z,28.62
2023-04-22T16:36:37.234Z,28.51
2023-04-22T16:39:05.138Z,27.33
2023-04-22T16:41:34.298Z,27.88
2023-04-22T16:44:01.645Z,28.64
2023-04-22T16:46:29.540Z,26.22
2023-04-22T16:48:57.291Z,26.59
2023-04-22T16:51:24.992Z,26.69
2023-04-22T16:53:52.262Z,25.92
2023-04-22T16:56:19.576Z,26.48
2023-04-22T16:58:47.334Z,25.88
2023-04-22T17:01:14.757Z,26.00
2023-04-22T17:03:42.809Z,25.57
2023-04-22T17:06:12.259Z,25.50
2023-04-22T17:08:39.988Z,25.57
2023-04-22T17:11:08.229Z,25.50
2023-04-22T17:13:35.837Z,25.87
2023-04-22T17:16:03.703Z,25.89
2023-04-22T17:18:31.095Z,26.41
2023-04-22T17:20:58.838Z,25.48
2023-04-22T17:23:26.995Z,25.06
2023-04-22T17:25:54.262Z,24.31
2023-04-22T17:28:21.530Z,23.99
2023-04-22T17:30:48.768Z,23.68
2023-04-22T17:33:16.444Z,23.08
2023-04-22T17:35:43.741Z,22.87
2023-04-22T17:38:11.119Z,22.86
2023-04-22T17:40:39.643Z,22.70
2023-04-22T17:43:06.927Z,22.64
2023-04-22T17:45:34.227Z,22.50
2023-04-22T17:48:02.807Z,22.47
2023-04-22T17:50:30.229Z,22.34
2023-04-22T17:52:58.230Z,22.26
2023-04-22T17:55:25.982Z,22.09
2023-04-22T17:57:53.389Z,21.93
2023-04-22T18:00:20.961Z,21.69
2023-04-22T18:02:48.742Z,21.57
2023-04-22T18:05:16.245Z,21.62
2023-04-22T18:07:43.917Z,21.54
2023-04-22T18:10:12.490Z,21.51
2023-04-22T18:12:40.792Z,21.31
2023-04-22T18:15:09.259Z,21.31
2023-04-22T18:17:36.625Z,21.29
2023-04-22T18:20:16.633Z,21.18
2023-04-22T18:22:46.764Z,21.22
2023-04-22T18:25:15.109Z,21.31
2023-04-22T18:27:42.889Z,21.35
2023-04-22T18:30:10.305Z,21.21
2023-04-22T18:32:37.660Z,21.31
2023-04-22T18:35:05.361Z,21.30
2023-04-22T18:37:34.577Z,20.94
2023-04-22T18:40:03.214Z,20.83
2023-04-22T18:42:30.690Z,20.89
2023-04-22T18:44:58.422Z,20.85
2023-04-22T18:47:26.846Z,20.86
2023-04-22T18:49:54.462Z,20.73
2023-04-22T18:52:21.957Z,20.53
2023-04-22T18:54:49.270Z,20.60
2023-04-22T18:57:17.447Z,20.67
2023-04-22T18:59:45.109Z,20.60
2023-04-22T19:02:13.123Z,20.58
2023-04-22T19:04:41.165Z,20.61
2023-04-22T19:07:08.754Z,20.54
2023-04-22T19:09:36.441Z,20.63
2023-04-22T19:12:05.147Z,20.68
2023-04-22T19:14:32.442Z,20.76
2023-04-22T19:17:00.133Z,20.69
2023-04-22T19:19:27.453Z,20.52
2023-04-22T19:21:55.165Z,20.41
2023-04-22T19:24:22.497Z,20.29
2023-04-22T19:26:49.777Z,20.54
2023-04-22T19:29:17.121Z,20.42
2023-04-22T19:31:45.098Z,20.58
2023-04-22T19:34:13.363Z,20.47
2023-04-22T19:36:41.215Z,20.62
2023-04-22T19:39:08.654Z,20.76
2023-04-22T19:41:38.011Z,20.85
2023-04-22T19:44:05.386Z,21.06
2023-04-22T19:46:33.645Z,20.94
2023-04-22T19:49:01.408Z,21.00
2023-04-22T19:51:28.666Z,20.86
2023-04-22T19:53:57.383Z,20.87
2023-04-22T19:56:25.186Z,20.87
2023-04-22T19:58:52.704Z,20.73
2023-04-22T20:01:20.169Z,20.73
2023-04-22T20:03:48.581Z,20.89
2023-04-22T20:06:16.472Z,20.85
2023-04-22T20:08:44.238Z,20.77
2023-04-22T20:11:12.219Z,20.75
2023-04-22T20:13:42.235Z,20.51
2023-04-22T20:16:10.704Z,20.40
2023-04-22T20:18:38.204Z,20.29
2023-04-22T20:21:05.544Z,20.33
2023-04-22T20:23:34.074Z,20.12
2023-04-22T20:26:02.876Z,20.18
2023-04-22T20:28:52.009Z,20.28
2023-04-22T20:31:22.442Z,20.19
2023-04-22T20:33:50.363Z,20.10
2023-04-22T20:36:19.678Z,19.94
2023-04-22T20:38:49.160Z,19.81
2023-04-22T20:41:20.860Z,19.73
2023-04-22T20:43:48.450Z,19.48
2023-04-22T20:46:16.191Z,19.22
2023-04-22T20:48:43.988Z,18.98
2023-04-22T20:51:12.472Z,19.16
2023-04-22T20:53:43.059Z,19.08
2023-04-22T20:56:10.470Z,19.00
2023-04-22T20:58:38.332Z,18.86
2023-04-22T21:01:07.981Z,18.82
2023-04-22T21:03:35.846Z,18.76
2023-04-22T21:06:03.754Z,18.75
2023-04-22T21:08:33.903Z,18.63
2023-04-22T21:11:01.461Z,18.63
2023-04-22T21:13:29.281Z,18.51
2023-04-22T21:16:02.555Z,18.59
2023-04-22T21:18:32.297Z,18.63
2023-04-22T21:21:01.909Z,18.59
2023-04-22T21:23:29.992Z,18.52
2023-04-22T21:25:59.863Z,18.50
2023-04-22T21:28:27.951Z,18.48
2023-04-22T21:30:55.564Z,18.53
2023-04-22T21:33:25.189Z,18.56
2023-04-22T21:35:53.254Z,18.58
2023-04-22T21:38:20.897Z,18.51
2023-04-22T21:40:48.324Z,18.40
2023-04-22T21:43:16.001Z,18.46
2023-04-22T21:45:43.422Z,18.49
2023-04-22T21:48:11.202Z,18.53
2023-04-22T21:50:38.558Z,18.53
2023-04-22T21:53:05.965Z,18.42
2023-04-22T21:55:33.255Z,18.47
2023-04-22T21:58:01.020Z,18.35
2023-04-22T22:00:28.823Z,18.24
2023-04-22T22:02:56.376Z,18.20
2023-04-22T22:05:24.260Z,18.21
2023-04-22T22:07:52.932Z,18.14
2023-04-22T22:10:20.322Z,18.06
2023-04-22T22:12:48.221Z,17.97
2023-04-22T22:15:16.348Z,17.84
2023-04-22T22:17:44.782Z,17.78
2023-04-22T22:20:13.925Z,17.94
2023-04-22T22:22:42.392Z,17.93
2023-04-22T22:25:11.560Z,17.96
2023-04-22T22:27:45.828Z,17.77
2023-04-22T22:30:13.787Z,17.78
2023-04-22T22:32:41.367Z,17.93
2023-04-22T22:35:09.358Z,17.95
2023-04-22T22:37:37.448Z,17.85
2023-04-22T22:40:05.868Z,17.62
2023-04-22T22:42:33.576Z,17.72
2023-04-22T22:45:01.120Z,17.68
2023-04-22T22:47:28.470Z,17.72
2023-04-22T22:49:56.501Z,17.73
2023-04-22T22:52:23.871Z,17.71
2023-04-22T22:54:52.362Z,17.72
2023-04-22T22:57:19.743Z,17.72
2023-04-22T22:59:47.082Z,17.69
2023-04-22T23:02:14.475Z,17.71
2023-04-22T23:04:42.113Z,17.71
2023-04-22T23:07:10.678Z,17.77
2023-04-22T23:09:38.531Z,17.80
2023-04-22T23:12:06.896Z,17.76
2023-04-22T23:14:35.162Z,17.68
2023-04-22T23:17:03.073Z,17.65
2023-04-22T23:19:31.861Z,17.51
2023-04-22T23:22:00.100Z,17.64
2023-04-22T23:24:27.955Z,17.75
2023-04-22T23:26:55.528Z,17.70
2023-04-22T23:29:23.055Z,17.55
2023-04-22T23:31:51.341Z,17.46
2023-04-22T23:34:20.136Z,17.48
2023-04-22T23:36:47.792Z,17.26
2023-04-22T23:39:15.105Z,17.21
2023-04-22T23:41:42.777Z,17.39
2023-04-22T23:44:10.407Z,17.48
2023-04-22T23:46:38.847Z,17.46
2023-04-22T23:49:07.233Z,17.45
2023-04-22T23:51:35.157Z,17.48
2023-04-22T23:54:03.450Z,17.34
2023-04-22T23:56:31.358Z,17.24
2023-04-22T23:58:59.908Z,17.31
